Carriage Hill, Washington
Current Conditions -  °F | °C
As of 3:15 AM on Friday 19 Dec 2014 (Local Time) from KCLS Reporting Station
Overcast Overcast  
Wind Chill: 43°   Ceiling: 11000
Heat Index: 48°   Visibility: 10mi
Dew Point: 46°   Wind: 14mph
Humidity: 93%   Direction: 180°S
Pressure: 29.84"   Gusts: 22mph
Location:  46.5485°N, 122.112°W
Report Text: KCLS 191115Z AUTO 18012G19KT 10SM SCT043 OVC110 09/08 A2984 RMK AO2
Loading
Personal Weather Stations






























Interactive Weather Map New forecast layout! Learn more

10-Day Weather Forecast

Advertisements
Track Severe Weather on mobile